McLeansville, North Carolina
Current Conditions -  °F | °C
As of 10:54 PM on Thursday 18 Dec 2014 (Local Time) from KBUY Reporting Station
Overcast Overcast  
Wind Chill: 38°   Ceiling: 7000
Heat Index: 38°   Visibility: 10mi
Dew Point: 27°   Wind: 0mph
Humidity: 65%   Direction: NA
Pressure: 30.1"   Gusts: NA
Location:  36.1°N, 79.66°W
Report Text: KBUY 190354Z AUTO 00000KT 10SM OVC070 03/M03 A3010 RMK AO2 SLP194 T00331028
Loading
Personal Weather Stations






























Interactive Weather Map New forecast layout! Learn more

10-Day Weather Forecast

Advertisements
Track Severe Weather on mobile